sensor_id;sensor_type;location;lat;lon;timestamp;P1;durP1;ratioP1;P2;durP2;ratioP2
9445;SDS011;4761;49.490;10.908;2022-09-29T00:00:09;2.67;;;1.50;;
9445;SDS011;4761;49.490;10.908;2022-09-29T00:02:36;3.47;;;1.80;;
9445;SDS011;4761;49.490;10.908;2022-09-29T00:05:02;2.53;;;1.80;;
9445;SDS011;4761;49.490;10.908;2022-09-29T00:07:28;3.40;;;2.00;;
9445;SDS011;4761;49.490;10.908;2022-09-29T00:09:54;2.50;;;1.63;;
9445;SDS011;4761;49.490;10.908;2022-09-29T00:12:19;2.63;;;1.67;;
9445;SDS011;4761;49.490;10.908;2022-09-29T00:14:45;2.23;;;1.60;;
9445;SDS011;4761;49.490;10.908;2022-09-29T00:17:10;1.57;;;1.43;;
9445;SDS011;4761;49.490;10.908;2022-09-29T00:19:37;2.47;;;1.60;;
9445;SDS011;4761;49.490;10.908;2022-09-29T00:22:03;2.67;;;1.73;;
9445;SDS011;4761;49.490;10.908;2022-09-29T00:24:29;4.23;;;1.73;;
9445;SDS011;4761;49.490;10.908;2022-09-29T00:26:55;10.80;;;2.10;;
9445;SDS011;4761;49.490;10.908;2022-09-29T00:29:21;2.10;;;1.67;;
9445;SDS011;4761;49.490;10.908;2022-09-29T00:31:46;2.37;;;1.60;;
9445;SDS011;4761;49.490;10.908;2022-09-29T00:34:12;2.97;;;1.60;;
9445;SDS011;4761;49.490;10.908;2022-09-29T00:36:37;3.67;;;1.70;;
9445;SDS011;4761;49.490;10.908;2022-09-29T00:39:03;2.13;;;1.60;;
9445;SDS011;4761;49.490;10.908;2022-09-29T00:41:30;2.73;;;1.90;;
9445;SDS011;4761;49.490;10.908;2022-09-29T00:44:05;3.37;;;1.77;;
9445;SDS011;4761;49.490;10.908;2022-09-29T00:46:55;2.30;;;2.00;;
9445;SDS011;4761;49.490;10.908;2022-09-29T00:49:38;4.10;;;1.53;;
9445;SDS011;4761;49.490;10.908;2022-09-29T00:54:48;3.03;;;1.67;;
9445;SDS011;4761;49.490;10.908;2022-09-29T00:57:17;2.40;;;1.63;;
9445;SDS011;4761;49.490;10.908;2022-09-29T01:02:15;3.77;;;1.83;;
9445;SDS011;4761;49.490;10.908;2022-09-29T01:04:43;2.00;;;1.70;;
9445;SDS011;4761;49.490;10.908;2022-09-29T01:07:10;2.67;;;2.07;;
9445;SDS011;4761;49.490;10.908;2022-09-29T01:09:37;3.97;;;2.00;;
9445;SDS011;4761;49.490;10.908;2022-09-29T01:12:04;3.23;;;1.60;;
9445;SDS011;4761;49.490;10.908;2022-09-29T01:14:30;2.90;;;1.90;;
9445;SDS011;4761;49.490;10.908;2022-09-29T01:16:57;1.60;;;1.50;;
9445;SDS011;4761;49.490;10.908;2022-09-29T01:27:27;3.90;;;1.90;;
9445;SDS011;4761;49.490;10.908;2022-09-29T01:30:07;3.67;;;1.90;;
9445;SDS011;4761;49.490;10.908;2022-09-29T01:32:51;3.40;;;1.87;;
9445;SDS011;4761;49.490;10.908;2022-09-29T01:38:28;3.70;;;2.00;;
9445;SDS011;4761;49.490;10.908;2022-09-29T01:41:25;2.67;;;2.00;;
9445;SDS011;4761;49.490;10.908;2022-09-29T01:44:07;3.07;;;2.10;;
9445;SDS011;4761;49.490;10.908;2022-09-29T01:46:44;2.27;;;2.07;;
9445;SDS011;4761;49.490;10.908;2022-09-29T01:49:14;4.77;;;1.93;;
9445;SDS011;4761;49.490;10.908;2022-09-29T01:51:46;3.10;;;2.00;;
9445;SDS011;4761;49.490;10.908;2022-09-29T01:54:17;2.97;;;2.20;;
9445;SDS011;4761;49.490;10.908;2022-09-29T01:57:01;2.90;;;1.70;;
9445;SDS011;4761;49.490;10.908;2022-09-29T01:59:35;3.30;;;2.37;;
9445;SDS011;4761;49.490;10.908;2022-09-29T02:02:16;3.30;;;2.27;;
9445;SDS011;4761;49.490;10.908;2022-09-29T02:04:53;4.30;;;2.20;;
9445;SDS011;4761;49.490;10.908;2022-09-29T02:07:27;2.70;;;2.40;;
9445;SDS011;4761;49.490;10.908;2022-09-29T02:10:01;2.40;;;2.00;;
9445;SDS011;4761;49.490;10.908;2022-09-29T02:12:31;3.43;;;2.40;;
9445;SDS011;4761;49.490;10.908;2022-09-29T02:15:00;2.93;;;2.00;;
9445;SDS011;4761;49.490;10.908;2022-09-29T02:17:30;2.90;;;2.13;;
9445;SDS011;4761;49.490;10.908;2022-09-29T02:20:00;2.90;;;2.00;;
9445;SDS011;4761;49.490;10.908;2022-09-29T02:22:26;4.30;;;2.27;;
9445;SDS011;4761;49.490;10.908;2022-09-29T02:24:53;2.57;;;2.07;;
9445;SDS011;4761;49.490;10.908;2022-09-29T02:27:22;2.57;;;2.03;;
9445;SDS011;4761;49.490;10.908;2022-09-29T02:29:49;3.00;;;2.00;;
9445;SDS011;4761;49.490;10.908;2022-09-29T02:32:15;3.83;;;2.10;;
9445;SDS011;4761;49.490;10.908;2022-09-29T02:34:42;3.30;;;2.17;;
9445;SDS011;4761;49.490;10.908;2022-09-29T02:37:17;3.97;;;2.30;;
9445;SDS011;4761;49.490;10.908;2022-09-29T02:42:54;2.90;;;2.10;;
9445;SDS011;4761;49.490;10.908;2022-09-29T02:46:46;2.20;;;1.93;;
9445;SDS011;4761;49.490;10.908;2022-09-29T02:49:01;2.83;;;2.30;;
9445;SDS011;4761;49.490;10.908;2022-09-29T02:51:49;2.80;;;2.13;;
9445;SDS011;4761;49.490;10.908;2022-09-29T02:54:32;4.90;;;2.53;;
9445;SDS011;4761;49.490;10.908;2022-09-29T02:57:19;2.37;;;1.90;;
9445;SDS011;4761;49.490;10.908;2022-09-29T03:00:08;2.80;;;1.93;;
9445;SDS011;4761;49.490;10.908;2022-09-29T03:02:37;2.80;;;1.97;;
9445;SDS011;4761;49.490;10.908;2022-09-29T03:05:04;3.63;;;2.10;;
9445;SDS011;4761;49.490;10.908;2022-09-29T03:07:32;2.97;;;1.90;;
9445;SDS011;4761;49.490;10.908;2022-09-29T03:09:58;2.47;;;2.03;;
9445;SDS011;4761;49.490;10.908;2022-09-29T03:12:23;4.37;;;2.00;;
9445;SDS011;4761;49.490;10.908;2022-09-29T03:14:49;2.10;;;1.87;;
9445;SDS011;4761;49.490;10.908;2022-09-29T03:17:14;7.57;;;4.77;;
9445;SDS011;4761;49.490;10.908;2022-09-29T03:19:40;9.63;;;5.57;;
9445;SDS011;4761;49.490;10.908;2022-09-29T03:22:05;10.87;;;5.70;;
9445;SDS011;4761;49.490;10.908;2022-09-29T03:24:31;8.03;;;5.00;;
9445;SDS011;4761;49.490;10.908;2022-09-29T03:26:56;8.33;;;5.13;;
9445;SDS011;4761;49.490;10.908;2022-09-29T03:29:22;6.90;;;4.07;;
9445;SDS011;4761;49.490;10.908;2022-09-29T03:31:48;7.43;;;4.07;;
9445;SDS011;4761;49.490;10.908;2022-09-29T03:34:13;9.33;;;3.80;;
9445;SDS011;4761;49.490;10.908;2022-09-29T03:36:39;5.60;;;3.37;;
9445;SDS011;4761;49.490;10.908;2022-09-29T03:39:05;5.43;;;3.00;;
9445;SDS011;4761;49.490;10.908;2022-09-29T03:41:31;7.17;;;3.13;;
9445;SDS011;4761;49.490;10.908;2022-09-29T03:43:57;4.07;;;2.77;;
9445;SDS011;4761;49.490;10.908;2022-09-29T03:46:22;5.37;;;3.07;;
9445;SDS011;4761;49.490;10.908;2022-09-29T03:48:48;4.13;;;2.97;;
9445;SDS011;4761;49.490;10.908;2022-09-29T03:51:13;4.53;;;2.50;;
9445;SDS011;4761;49.490;10.908;2022-09-29T03:53:39;5.17;;;2.87;;
9445;SDS011;4761;49.490;10.908;2022-09-29T03:56:04;4.87;;;3.10;;
9445;SDS011;4761;49.490;10.908;2022-09-29T03:58:30;4.10;;;3.30;;
9445;SDS011;4761;49.490;10.908;2022-09-29T04:00:56;8.80;;;5.13;;
9445;SDS011;4761;49.490;10.908;2022-09-29T04:03:21;10.20;;;6.73;;
9445;SDS011;4761;49.490;10.908;2022-09-29T04:05:47;9.43;;;6.10;;
9445;SDS011;4761;49.490;10.908;2022-09-29T04:08:13;7.60;;;5.40;;
9445;SDS011;4761;49.490;10.908;2022-09-29T04:10:39;5.80;;;4.63;;
9445;SDS011;4761;49.490;10.908;2022-09-29T04:13:05;5.83;;;4.17;;
9445;SDS011;4761;49.490;10.908;2022-09-29T04:15:32;7.60;;;3.87;;
9445;SDS011;4761;49.490;10.908;2022-09-29T04:17:57;5.30;;;3.70;;
9445;SDS011;4761;49.490;10.908;2022-09-29T04:20:23;5.77;;;3.80;;
9445;SDS011;4761;49.490;10.908;2022-09-29T04:22:49;4.87;;;3.40;;
9445;SDS011;4761;49.490;10.908;2022-09-29T04:25:14;4.93;;;2.90;;
9445;SDS011;4761;49.490;10.908;2022-09-29T04:27:40;3.57;;;2.80;;
9445;SDS011;4761;49.490;10.908;2022-09-29T04:30:06;3.47;;;2.80;;
9445;SDS011;4761;49.490;10.908;2022-09-29T04:32:32;4.47;;;2.63;;
9445;SDS011;4761;49.490;10.908;2022-09-29T04:34:58;3.47;;;2.30;;
9445;SDS011;4761;49.490;10.908;2022-09-29T04:37:23;3.47;;;2.53;;
9445;SDS011;4761;49.490;10.908;2022-09-29T04:39:49;2.97;;;2.40;;
9445;SDS011;4761;49.490;10.908;2022-09-29T04:42:16;3.03;;;2.47;;
9445;SDS011;4761;49.490;10.908;2022-09-29T04:44:42;6.73;;;2.60;;
9445;SDS011;4761;49.490;10.908;2022-09-29T04:47:07;3.40;;;3.03;;
9445;SDS011;4761;49.490;10.908;2022-09-29T04:49:33;5.20;;;2.80;;
9445;SDS011;4761;49.490;10.908;2022-09-29T04:51:58;3.83;;;2.27;;
9445;SDS011;4761;49.490;10.908;2022-09-29T04:54:24;3.43;;;2.67;;
9445;SDS011;4761;49.490;10.908;2022-09-29T04:56:53;3.40;;;2.87;;
9445;SDS011;4761;49.490;10.908;2022-09-29T04:59:19;3.53;;;3.00;;
9445;SDS011;4761;49.490;10.908;2022-09-29T05:01:44;5.37;;;3.00;;
9445;SDS011;4761;49.490;10.908;2022-09-29T05:04:10;6.13;;;3.20;;
9445;SDS011;4761;49.490;10.908;2022-09-29T05:06:37;4.37;;;2.90;;
9445;SDS011;4761;49.490;10.908;2022-09-29T05:09:04;3.60;;;3.10;;
9445;SDS011;4761;49.490;10.908;2022-09-29T05:11:30;3.70;;;2.37;;
9445;SDS011;4761;49.490;10.908;2022-09-29T05:13:55;3.80;;;2.90;;
9445;SDS011;4761;49.490;10.908;2022-09-29T05:16:21;3.40;;;2.93;;
9445;SDS011;4761;49.490;10.908;2022-09-29T05:18:46;2.70;;;2.30;;
9445;SDS011;4761;49.490;10.908;2022-09-29T05:21:12;2.43;;;1.90;;
9445;SDS011;4761;49.490;10.908;2022-09-29T05:23:37;3.53;;;2.13;;
9445;SDS011;4761;49.490;10.908;2022-09-29T05:26:04;3.87;;;2.30;;
9445;SDS011;4761;49.490;10.908;2022-09-29T05:28:31;2.33;;;2.13;;
9445;SDS011;4761;49.490;10.908;2022-09-29T05:31:03;3.03;;;2.00;;
9445;SDS011;4761;49.490;10.908;2022-09-29T05:33:31;3.10;;;2.03;;
9445;SDS011;4761;49.490;10.908;2022-09-29T05:35:57;2.87;;;2.10;;
9445;SDS011;4761;49.490;10.908;2022-09-29T05:38:23;2.57;;;2.13;;
9445;SDS011;4761;49.490;10.908;2022-09-29T05:40:49;4.63;;;2.53;;
9445;SDS011;4761;49.490;10.908;2022-09-29T05:43:15;5.33;;;2.57;;
9445;SDS011;4761;49.490;10.908;2022-09-29T05:45:41;6.47;;;2.70;;
9445;SDS011;4761;49.490;10.908;2022-09-29T05:48:06;4.90;;;3.17;;
9445;SDS011;4761;49.490;10.908;2022-09-29T05:50:32;3.40;;;3.00;;
9445;SDS011;4761;49.490;10.908;2022-09-29T05:53:05;6.60;;;3.90;;
9445;SDS011;4761;49.490;10.908;2022-09-29T05:55:35;3.47;;;2.83;;
9445;SDS011;4761;49.490;10.908;2022-09-29T05:58:02;4.27;;;3.00;;
9445;SDS011;4761;49.490;10.908;2022-09-29T06:00:28;7.57;;;3.30;;
9445;SDS011;4761;49.490;10.908;2022-09-29T06:02:56;3.37;;;2.83;;
9445;SDS011;4761;49.490;10.908;2022-09-29T06:05:26;4.23;;;2.87;;
9445;SDS011;4761;49.490;10.908;2022-09-29T06:07:52;3.23;;;2.20;;
9445;SDS011;4761;49.490;10.908;2022-09-29T06:10:18;3.90;;;2.80;;
9445;SDS011;4761;49.490;10.908;2022-09-29T06:12:44;3.30;;;2.73;;
9445;SDS011;4761;49.490;10.908;2022-09-29T06:15:09;3.43;;;2.60;;
9445;SDS011;4761;49.490;10.908;2022-09-29T06:17:36;2.97;;;2.50;;
9445;SDS011;4761;49.490;10.908;2022-09-29T06:20:02;4.37;;;2.40;;
9445;SDS011;4761;49.490;10.908;2022-09-29T06:22:29;3.60;;;2.03;;
9445;SDS011;4761;49.490;10.908;2022-09-29T06:24:54;4.03;;;2.40;;
9445;SDS011;4761;49.490;10.908;2022-09-29T06:27:21;3.03;;;2.30;;
9445;SDS011;4761;49.490;10.908;2022-09-29T06:29:46;3.30;;;2.17;;
9445;SDS011;4761;49.490;10.908;2022-09-29T06:32:12;3.60;;;2.47;;
9445;SDS011;4761;49.490;10.908;2022-09-29T06:34:37;3.40;;;2.17;;
9445;SDS011;4761;49.490;10.908;2022-09-29T06:37:23;3.73;;;2.33;;
9445;SDS011;4761;49.490;10.908;2022-09-29T06:39:59;2.40;;;1.90;;
9445;SDS011;4761;49.490;10.908;2022-09-29T06:42:24;2.20;;;2.00;;
9445;SDS011;4761;49.490;10.908;2022-09-29T06:44:50;3.23;;;2.20;;
9445;SDS011;4761;49.490;10.908;2022-09-29T06:47:15;5.00;;;2.40;;
9445;SDS011;4761;49.490;10.908;2022-09-29T06:49:41;2.17;;;1.93;;
9445;SDS011;4761;49.490;10.908;2022-09-29T06:52:07;2.27;;;2.03;;
9445;SDS011;4761;49.490;10.908;2022-09-29T06:54:32;2.70;;;1.97;;
9445;SDS011;4761;49.490;10.908;2022-09-29T06:56:58;2.83;;;2.07;;
9445;SDS011;4761;49.490;10.908;2022-09-29T06:59:24;2.40;;;1.90;;
9445;SDS011;4761;49.490;10.908;2022-09-29T07:01:50;2.33;;;2.10;;
9445;SDS011;4761;49.490;10.908;2022-09-29T07:04:16;3.47;;;2.13;;
9445;SDS011;4761;49.490;10.908;2022-09-29T07:06:43;2.57;;;1.97;;
9445;SDS011;4761;49.490;10.908;2022-09-29T07:09:09;3.43;;;2.10;;
9445;SDS011;4761;49.490;10.908;2022-09-29T07:11:39;3.27;;;2.40;;
9445;SDS011;4761;49.490;10.908;2022-09-29T07:14:12;3.40;;;2.43;;
9445;SDS011;4761;49.490;10.908;2022-09-29T07:16:38;2.43;;;2.23;;
9445;SDS011;4761;49.490;10.908;2022-09-29T07:19:04;2.13;;;1.70;;
9445;SDS011;4761;49.490;10.908;2022-09-29T07:21:29;2.20;;;2.00;;
9445;SDS011;4761;49.490;10.908;2022-09-29T07:23:55;4.00;;;2.03;;
9445;SDS011;4761;49.490;10.908;2022-09-29T07:26:20;2.20;;;1.93;;
9445;SDS011;4761;49.490;10.908;2022-09-29T07:28:46;5.20;;;2.03;;
9445;SDS011;4761;49.490;10.908;2022-09-29T07:31:14;2.90;;;2.00;;
9445;SDS011;4761;49.490;10.908;2022-09-29T07:33:41;2.10;;;1.90;;
9445;SDS011;4761;49.490;10.908;2022-09-29T07:36:07;2.70;;;2.07;;
9445;SDS011;4761;49.490;10.908;2022-09-29T07:38:33;2.87;;;1.97;;
9445;SDS011;4761;49.490;10.908;2022-09-29T07:40:59;2.37;;;2.17;;
9445;SDS011;4761;49.490;10.908;2022-09-29T07:43:30;2.20;;;2.00;;
9445;SDS011;4761;49.490;10.908;2022-09-29T07:45:55;1.87;;;1.77;;
9445;SDS011;4761;49.490;10.908;2022-09-29T07:48:21;2.03;;;1.83;;
9445;SDS011;4761;49.490;10.908;2022-09-29T07:50:46;2.50;;;2.10;;
9445;SDS011;4761;49.490;10.908;2022-09-29T07:53:12;3.43;;;1.67;;
9445;SDS011;4761;49.490;10.908;2022-09-29T07:55:38;2.93;;;2.07;;
9445;SDS011;4761;49.490;10.908;2022-09-29T07:58:05;1.97;;;1.80;;
9445;SDS011;4761;49.490;10.908;2022-09-29T08:00:31;3.00;;;1.90;;
9445;SDS011;4761;49.490;10.908;2022-09-29T08:03:00;3.07;;;1.70;;
9445;SDS011;4761;49.490;10.908;2022-09-29T08:05:26;2.33;;;1.90;;
9445;SDS011;4761;49.490;10.908;2022-09-29T08:07:53;2.67;;;1.80;;
9445;SDS011;4761;49.490;10.908;2022-09-29T08:10:18;1.80;;;1.70;;
9445;SDS011;4761;49.490;10.908;2022-09-29T08:12:44;2.07;;;1.87;;
9445;SDS011;4761;49.490;10.908;2022-09-29T08:15:10;2.03;;;1.80;;
9445;SDS011;4761;49.490;10.908;2022-09-29T08:17:35;2.57;;;2.10;;
9445;SDS011;4761;49.490;10.908;2022-09-29T08:20:01;2.77;;;1.80;;
9445;SDS011;4761;49.490;10.908;2022-09-29T08:22:26;1.90;;;1.73;;
9445;SDS011;4761;49.490;10.908;2022-09-29T08:24:52;2.00;;;1.80;;
9445;SDS011;4761;49.490;10.908;2022-09-29T08:27:18;2.00;;;1.80;;
9445;SDS011;4761;49.490;10.908;2022-09-29T08:29:43;2.20;;;1.80;;
9445;SDS011;4761;49.490;10.908;2022-09-29T08:32:09;3.03;;;2.67;;
9445;SDS011;4761;49.490;10.908;2022-09-29T08:34:34;3.00;;;2.43;;
9445;SDS011;4761;49.490;10.908;2022-09-29T08:37:00;2.33;;;1.90;;
9445;SDS011;4761;49.490;10.908;2022-09-29T08:39:26;2.37;;;2.17;;
9445;SDS011;4761;49.490;10.908;2022-09-29T08:44:34;3.33;;;2.00;;
9445;SDS011;4761;49.490;10.908;2022-09-29T08:47:10;2.63;;;2.20;;
9445;SDS011;4761;49.490;10.908;2022-09-29T08:49:42;2.37;;;2.10;;
9445;SDS011;4761;49.490;10.908;2022-09-29T08:52:13;3.03;;;2.13;;
9445;SDS011;4761;49.490;10.908;2022-09-29T08:54:43;2.27;;;2.07;;
9445;SDS011;4761;49.490;10.908;2022-09-29T08:57:12;3.83;;;2.70;;
9445;SDS011;4761;49.490;10.908;2022-09-29T08:59:41;3.47;;;2.90;;
9445;SDS011;4761;49.490;10.908;2022-09-29T09:16:37;3.90;;;2.30;;
9445;SDS011;4761;49.490;10.908;2022-09-29T09:22:19;3.57;;;2.57;;
9445;SDS011;4761;49.490;10.908;2022-09-29T09:24:47;3.17;;;2.57;;
9445;SDS011;4761;49.490;10.908;2022-09-29T09:27:20;5.33;;;2.87;;
9445;SDS011;4761;49.490;10.908;2022-09-29T09:29:54;4.77;;;3.30;;
9445;SDS011;4761;49.490;10.908;2022-09-29T09:32:27;3.70;;;2.70;;
9445;SDS011;4761;49.490;10.908;2022-09-29T09:37:57;3.27;;;2.47;;
9445;SDS011;4761;49.490;10.908;2022-09-29T09:40:28;2.93;;;2.47;;
9445;SDS011;4761;49.490;10.908;2022-09-29T09:43:09;3.00;;;2.50;;
9445;SDS011;4761;49.490;10.908;2022-09-29T09:45:47;4.17;;;2.90;;
9445;SDS011;4761;49.490;10.908;2022-09-29T09:48:20;4.43;;;2.53;;
9445;SDS011;4761;49.490;10.908;2022-09-29T09:50:54;2.70;;;2.50;;
9445;SDS011;4761;49.490;10.908;2022-09-29T09:53:21;3.10;;;1.90;;
9445;SDS011;4761;49.490;10.908;2022-09-29T09:58:59;3.13;;;2.20;;
9445;SDS011;4761;49.490;10.908;2022-09-29T10:01:30;2.53;;;2.20;;
9445;SDS011;4761;49.490;10.908;2022-09-29T10:03:56;2.27;;;1.93;;
9445;SDS011;4761;49.490;10.908;2022-09-29T10:06:23;2.27;;;2.07;;
9445;SDS011;4761;49.490;10.908;2022-09-29T10:08:49;2.73;;;1.90;;
9445;SDS011;4761;49.490;10.908;2022-09-29T10:11:20;1.93;;;1.73;;
9445;SDS011;4761;49.490;10.908;2022-09-29T10:14:01;2.97;;;2.27;;
9445;SDS011;4761;49.490;10.908;2022-09-29T10:16:35;4.00;;;2.30;;
9445;SDS011;4761;49.490;10.908;2022-09-29T10:19:06;3.80;;;2.10;;
9445;SDS011;4761;49.490;10.908;2022-09-29T10:21:35;2.13;;;1.93;;
9445;SDS011;4761;49.490;10.908;2022-09-29T10:24:01;2.57;;;2.00;;
9445;SDS011;4761;49.490;10.908;2022-09-29T10:26:41;7.13;;;2.20;;
9445;SDS011;4761;49.490;10.908;2022-09-29T10:31:59;5.53;;;2.53;;
9445;SDS011;4761;49.490;10.908;2022-09-29T10:34:28;3.77;;;2.13;;
9445;SDS011;4761;49.490;10.908;2022-09-29T10:39:30;4.47;;;2.00;;
9445;SDS011;4761;49.490;10.908;2022-09-29T10:41:58;3.90;;;2.23;;
9445;SDS011;4761;49.490;10.908;2022-09-29T10:44:24;2.90;;;2.00;;
9445;SDS011;4761;49.490;10.908;2022-09-29T10:46:57;4.37;;;2.20;;
9445;SDS011;4761;49.490;10.908;2022-09-29T10:49:24;4.77;;;1.93;;
9445;SDS011;4761;49.490;10.908;2022-09-29T10:52:04;4.27;;;2.13;;
9445;SDS011;4761;49.490;10.908;2022-09-29T10:54:51;2.27;;;1.67;;
9445;SDS011;4761;49.490;10.908;2022-09-29T10:57:26;4.13;;;1.80;;
9445;SDS011;4761;49.490;10.908;2022-09-29T10:59:54;2.70;;;1.80;;
9445;SDS011;4761;49.490;10.908;2022-09-29T11:04:59;4.27;;;1.97;;
9445;SDS011;4761;49.490;10.908;2022-09-29T11:07:28;3.67;;;1.60;;
9445;SDS011;4761;49.490;10.908;2022-09-29T11:09:55;2.30;;;1.43;;
9445;SDS011;4761;49.490;10.908;2022-09-29T11:12:33;2.07;;;1.60;;
9445;SDS011;4761;49.490;10.908;2022-09-29T11:15:07;3.40;;;1.47;;
9445;SDS011;4761;49.490;10.908;2022-09-29T11:17:48;3.20;;;1.70;;
9445;SDS011;4761;49.490;10.908;2022-09-29T11:20:16;3.30;;;1.53;;
9445;SDS011;4761;49.490;10.908;2022-09-29T11:22:45;2.47;;;1.47;;
9445;SDS011;4761;49.490;10.908;2022-09-29T11:28:20;3.20;;;1.70;;
9445;SDS011;4761;49.490;10.908;2022-09-29T11:33:50;4.77;;;1.80;;
9445;SDS011;4761;49.490;10.908;2022-09-29T11:36:50;3.30;;;1.80;;
9445;SDS011;4761;49.490;10.908;2022-09-29T11:42:47;3.20;;;1.60;;
9445;SDS011;4761;49.490;10.908;2022-09-29T11:45:41;1.67;;;1.30;;
9445;SDS011;4761;49.490;10.908;2022-09-29T11:56:48;1.73;;;1.23;;
9445;SDS011;4761;49.490;10.908;2022-09-29T12:05:13;3.43;;;1.50;;
9445;SDS011;4761;49.490;10.908;2022-09-29T12:07:51;4.30;;;1.50;;
9445;SDS011;4761;49.490;10.908;2022-09-29T12:18:02;2.50;;;1.37;;
9445;SDS011;4761;49.490;10.908;2022-09-29T12:20:35;2.93;;;1.60;;
9445;SDS011;4761;49.490;10.908;2022-09-29T12:23:09;1.60;;;1.50;;
9445;SDS011;4761;49.490;10.908;2022-09-29T12:25:38;2.20;;;1.50;;
9445;SDS011;4761;49.490;10.908;2022-09-29T12:28:17;3.63;;;1.80;;
9445;SDS011;4761;49.490;10.908;2022-09-29T12:30:51;3.00;;;1.77;;
9445;SDS011;4761;49.490;10.908;2022-09-29T12:33:22;5.30;;;2.07;;
9445;SDS011;4761;49.490;10.908;2022-09-29T12:36:12;3.03;;;1.60;;
9445;SDS011;4761;49.490;10.908;2022-09-29T12:39:25;2.97;;;1.83;;
9445;SDS011;4761;49.490;10.908;2022-09-29T12:47:42;3.80;;;1.50;;
9445;SDS011;4761;49.490;10.908;2022-09-29T12:50:13;4.47;;;2.13;;
9445;SDS011;4761;49.490;10.908;2022-09-29T12:52:40;5.67;;;2.20;;
9445;SDS011;4761;49.490;10.908;2022-09-29T12:55:17;2.43;;;1.80;;
9445;SDS011;4761;49.490;10.908;2022-09-29T12:57:50;2.57;;;1.70;;
9445;SDS011;4761;49.490;10.908;2022-09-29T13:00:21;2.77;;;1.90;;
9445;SDS011;4761;49.490;10.908;2022-09-29T13:06:03;4.77;;;2.30;;
9445;SDS011;4761;49.490;10.908;2022-09-29T13:08:44;4.07;;;2.60;;
9445;SDS011;4761;49.490;10.908;2022-09-29T13:14:37;24.10;;;4.00;;
9445;SDS011;4761;49.490;10.908;2022-09-29T13:25:59;16.63;;;2.60;;
9445;SDS011;4761;49.490;10.908;2022-09-29T13:28:34;8.70;;;2.00;;
9445;SDS011;4761;49.490;10.908;2022-09-29T13:31:16;6.37;;;2.20;;
9445;SDS011;4761;49.490;10.908;2022-09-29T13:33:50;10.13;;;2.37;;
9445;SDS011;4761;49.490;10.908;2022-09-29T13:36:33;11.73;;;1.93;;
9445;SDS011;4761;49.490;10.908;2022-09-29T13:39:03;10.10;;;2.03;;
9445;SDS011;4761;49.490;10.908;2022-09-29T13:41:33;2.90;;;1.57;;
9445;SDS011;4761;49.490;10.908;2022-09-29T13:44:02;5.00;;;1.80;;
9445;SDS011;4761;49.490;10.908;2022-09-29T13:51:40;4.40;;;1.50;;
9445;SDS011;4761;49.490;10.908;2022-09-29T13:54:22;3.33;;;1.30;;
9445;SDS011;4761;49.490;10.908;2022-09-29T13:59:36;2.03;;;1.20;;
9445;SDS011;4761;49.490;10.908;2022-09-29T14:05:27;1.97;;;0.90;;
9445;SDS011;4761;49.490;10.908;2022-09-29T14:15:27;2.10;;;1.17;;
9445;SDS011;4761;49.490;10.908;2022-09-29T14:18:00;1.63;;;1.03;;
9445;SDS011;4761;49.490;10.908;2022-09-29T14:20:32;1.10;;;1.00;;
9445;SDS011;4761;49.490;10.908;2022-09-29T14:23:03;2.40;;;1.10;;
9445;SDS011;4761;49.490;10.908;2022-09-29T14:25:47;2.77;;;1.17;;
9445;SDS011;4761;49.490;10.908;2022-09-29T14:28:21;1.30;;;0.93;;
9445;SDS011;4761;49.490;10.908;2022-09-29T14:30:53;2.93;;;1.23;;
9445;SDS011;4761;49.490;10.908;2022-09-29T14:33:22;2.27;;;1.20;;
9445;SDS011;4761;49.490;10.908;2022-09-29T14:38:27;2.27;;;1.20;;
9445;SDS011;4761;49.490;10.908;2022-09-29T14:43:41;1.77;;;1.20;;
9445;SDS011;4761;49.490;10.908;2022-09-29T14:52:29;1.87;;;1.33;;
9445;SDS011;4761;49.490;10.908;2022-09-29T15:00:40;1.70;;;1.10;;
9445;SDS011;4761;49.490;10.908;2022-09-29T15:03:35;7.70;;;2.07;;
9445;SDS011;4761;49.490;10.908;2022-09-29T15:08:40;3.23;;;1.77;;
9445;SDS011;4761;49.490;10.908;2022-09-29T15:14:04;4.23;;;1.70;;
9445;SDS011;4761;49.490;10.908;2022-09-29T15:27:52;3.10;;;1.27;;
9445;SDS011;4761;49.490;10.908;2022-09-29T15:30:19;3.37;;;1.20;;
9445;SDS011;4761;49.490;10.908;2022-09-29T15:32:47;1.30;;;1.00;;
9445;SDS011;4761;49.490;10.908;2022-09-29T15:35:16;1.80;;;1.20;;
9445;SDS011;4761;49.490;10.908;2022-09-29T15:40:15;2.70;;;1.43;;
9445;SDS011;4761;49.490;10.908;2022-09-29T15:42:43;1.93;;;1.13;;
9445;SDS011;4761;49.490;10.908;2022-09-29T15:45:18;3.80;;;1.20;;
9445;SDS011;4761;49.490;10.908;2022-09-29T15:47:46;4.63;;;1.37;;
9445;SDS011;4761;49.490;10.908;2022-09-29T15:50:22;1.23;;;1.10;;
9445;SDS011;4761;49.490;10.908;2022-09-29T15:52:49;4.13;;;1.20;;
9445;SDS011;4761;49.490;10.908;2022-09-29T15:55:16;1.70;;;1.00;;
9445;SDS011;4761;49.490;10.908;2022-09-29T15:57:48;2.30;;;1.20;;
9445;SDS011;4761;49.490;10.908;2022-09-29T16:05:34;1.67;;;1.13;;
9445;SDS011;4761;49.490;10.908;2022-09-29T16:08:05;2.10;;;1.13;;
9445;SDS011;4761;49.490;10.908;2022-09-29T16:10:39;5.10;;;1.23;;
9445;SDS011;4761;49.490;10.908;2022-09-29T16:13:20;1.00;;;0.90;;
9445;SDS011;4761;49.490;10.908;2022-09-29T16:15:50;2.80;;;1.00;;
9445;SDS011;4761;49.490;10.908;2022-09-29T16:18:19;1.23;;;0.90;;
9445;SDS011;4761;49.490;10.908;2022-09-29T16:21:10;2.00;;;1.00;;
9445;SDS011;4761;49.490;10.908;2022-09-29T16:23:48;2.07;;;1.10;;
9445;SDS011;4761;49.490;10.908;2022-09-29T16:26:17;4.87;;;1.40;;
9445;SDS011;4761;49.490;10.908;2022-09-29T16:28:58;1.97;;;1.10;;
9445;SDS011;4761;49.490;10.908;2022-09-29T16:31:34;1.97;;;1.10;;
9445;SDS011;4761;49.490;10.908;2022-09-29T16:34:03;2.10;;;1.10;;
9445;SDS011;4761;49.490;10.908;2022-09-29T16:36:55;1.33;;;1.00;;
9445;SDS011;4761;49.490;10.908;2022-09-29T16:39:30;2.00;;;1.10;;
9445;SDS011;4761;49.490;10.908;2022-09-29T16:41:58;2.90;;;1.33;;
9445;SDS011;4761;49.490;10.908;2022-09-29T16:44:40;1.93;;;1.20;;
9445;SDS011;4761;49.490;10.908;2022-09-29T16:47:14;1.63;;;1.40;;
9445;SDS011;4761;49.490;10.908;2022-09-29T16:52:19;2.37;;;2.17;;
9445;SDS011;4761;49.490;10.908;2022-09-29T16:54:49;8.20;;;4.70;;
9445;SDS011;4761;49.490;10.908;2022-09-29T16:57:26;5.60;;;4.20;;
9445;SDS011;4761;49.490;10.908;2022-09-29T17:00:15;5.73;;;4.23;;
9445;SDS011;4761;49.490;10.908;2022-09-29T17:02:40;6.53;;;5.13;;
9445;SDS011;4761;49.490;10.908;2022-09-29T17:05:05;5.00;;;4.43;;
9445;SDS011;4761;49.490;10.908;2022-09-29T17:07:31;7.13;;;4.70;;
9445;SDS011;4761;49.490;10.908;2022-09-29T17:10:03;6.10;;;3.87;;
9445;SDS011;4761;49.490;10.908;2022-09-29T17:12:31;4.87;;;3.73;;
9445;SDS011;4761;49.490;10.908;2022-09-29T17:14:57;7.83;;;3.80;;
9445;SDS011;4761;49.490;10.908;2022-09-29T17:17:26;4.63;;;3.43;;
9445;SDS011;4761;49.490;10.908;2022-09-29T17:19:52;5.67;;;3.90;;
9445;SDS011;4761;49.490;10.908;2022-09-29T17:22:31;5.20;;;3.80;;
9445;SDS011;4761;49.490;10.908;2022-09-29T17:25:00;4.37;;;3.70;;
9445;SDS011;4761;49.490;10.908;2022-09-29T17:27:27;5.80;;;3.83;;
9445;SDS011;4761;49.490;10.908;2022-09-29T17:30:16;4.53;;;3.50;;
9445;SDS011;4761;49.490;10.908;2022-09-29T17:32:46;3.80;;;3.20;;
9445;SDS011;4761;49.490;10.908;2022-09-29T17:35:13;4.30;;;3.30;;
9445;SDS011;4761;49.490;10.908;2022-09-29T17:37:40;3.77;;;2.93;;
9445;SDS011;4761;49.490;10.908;2022-09-29T17:40:49;3.77;;;2.97;;
9445;SDS011;4761;49.490;10.908;2022-09-29T17:43:00;4.57;;;2.97;;
9445;SDS011;4761;49.490;10.908;2022-09-29T17:45:26;3.60;;;2.90;;
9445;SDS011;4761;49.490;10.908;2022-09-29T17:47:59;4.50;;;3.27;;
9445;SDS011;4761;49.490;10.908;2022-09-29T17:50:29;5.97;;;3.60;;
9445;SDS011;4761;49.490;10.908;2022-09-29T17:53:00;4.80;;;4.20;;
9445;SDS011;4761;49.490;10.908;2022-09-29T17:58:05;5.93;;;4.23;;
9445;SDS011;4761;49.490;10.908;2022-09-29T18:00:31;6.30;;;4.30;;
9445;SDS011;4761;49.490;10.908;2022-09-29T18:03:03;5.00;;;4.10;;
9445;SDS011;4761;49.490;10.908;2022-09-29T18:05:30;4.33;;;3.63;;
9445;SDS011;4761;49.490;10.908;2022-09-29T18:07:57;4.00;;;3.60;;
9445;SDS011;4761;49.490;10.908;2022-09-29T18:10:43;4.20;;;3.70;;